createdAt,value
2019-02-20T00:02:41.269Z,38.43
2019-02-20T00:07:46.455Z,38.87
2019-02-20T00:12:56.520Z,40.03
2019-02-20T00:18:01.598Z,41.43
2019-02-20T00:23:06.673Z,41.80
2019-02-20T00:28:12.204Z,40.97
2019-02-20T00:33:17.304Z,36.07
2019-02-20T00:38:22.733Z,37.87
2019-02-20T00:43:27.914Z,42.55
2019-02-20T00:48:50.881Z,42.27
2019-02-20T00:53:59.052Z,41.85
2019-02-20T00:59:04.058Z,39.73
2019-02-20T01:04:09.160Z,43.80
2019-02-20T01:09:14.262Z,49.05
2019-02-20T01:14:19.286Z,48.85
2019-02-20T01:19:24.803Z,38.37
2019-02-20T01:24:31.184Z,40.20
2019-02-20T01:29:36.640Z,42.67
2019-02-20T01:34:41.728Z,41.30
2019-02-20T01:39:49.422Z,41.33
2019-02-20T01:44:54.390Z,38.20
2019-02-20T01:49:59.428Z,40.40
2019-02-20T01:55:04.889Z,42.33
2019-02-20T02:00:10.343Z,45.63
2019-02-20T02:05:16.025Z,38.90
2019-02-20T02:10:22.298Z,39.77
2019-02-20T02:15:27.704Z,39.83
2019-02-20T02:20:32.854Z,39.60
2019-02-20T02:25:37.936Z,40.20
2019-02-20T02:30:42.940Z,38.80
2019-02-20T02:35:48.610Z,37.83
2019-02-20T02:40:54.735Z,38.23
2019-02-20T02:45:59.899Z,38.90
2019-02-20T02:51:05.461Z,37.53
2019-02-20T02:56:10.532Z,42.23
2019-02-20T03:01:15.614Z,43.63
2019-02-20T03:06:20.640Z,38.97
2019-02-20T03:11:25.663Z,43.77
2019-02-20T03:16:30.782Z,45.77
2019-02-20T03:21:35.844Z,41.10
2019-02-20T03:26:40.926Z,48.30
2019-02-20T03:31:46.367Z,44.13
2019-02-20T03:36:51.368Z,48.97
2019-02-20T03:41:56.951Z,49.17
2019-02-20T03:47:02.218Z,49.00
2019-02-20T03:52:07.446Z,45.90
2019-02-20T03:57:12.583Z,44.13
2019-02-20T04:02:17.996Z,44.80
2019-02-20T04:07:23.108Z,49.17
2019-02-20T04:12:28.579Z,47.07
2019-02-20T04:17:34.081Z,45.53
2019-02-20T04:22:39.277Z,45.70
2019-02-20T04:27:44.389Z,44.90
2019-02-20T04:32:49.796Z,47.17
2019-02-20T04:37:55.975Z,46.60
2019-02-20T04:43:00.985Z,47.20
2019-02-20T04:48:06.005Z,49.20
2019-02-20T04:53:11.131Z,40.73
2019-02-20T04:58:18.901Z,46.80
2019-02-20T05:03:23.907Z,44.73
2019-02-20T05:08:29.072Z,42.03
2019-02-20T05:13:35.096Z,46.37
2019-02-20T05:18:40.180Z,47.43
2019-02-20T05:23:45.370Z,50.00
2019-02-20T05:28:50.871Z,48.80
2019-02-20T05:33:55.894Z,44.60
2019-02-20T05:39:01.739Z,46.93
2019-02-20T05:44:08.473Z,50.57
2019-02-20T05:49:13.557Z,50.90
2019-02-20T05:54:20.055Z,46.60
2019-02-20T05:59:25.253Z,42.43
2019-02-20T06:04:30.286Z,43.43
2019-02-20T06:09:35.362Z,45.90
2019-02-20T06:14:40.766Z,43.47
2019-02-20T06:19:45.903Z,43.33
2019-02-20T06:24:51.435Z,45.73
2019-02-20T06:29:57.415Z,40.87
2019-02-20T06:35:02.530Z,41.43
2019-02-20T06:40:08.753Z,43.27
2019-02-20T06:45:13.857Z,40.83
2019-02-20T06:50:21.061Z,36.53
2019-02-20T06:55:26.236Z,35.07
2019-02-20T07:00:31.376Z,36.33
2019-02-20T07:05:44.893Z,36.17
2019-02-20T07:11:30.138Z,40.23
2019-02-20T07:17:04.148Z,40.30
2019-02-20T07:22:34.382Z,37.50
2019-02-20T07:28:09.902Z,30.43
2019-02-20T07:33:15.587Z,28.00
2019-02-20T07:38:20.775Z,29.33
2019-02-20T07:43:26.324Z,31.47
2019-02-20T07:48:31.431Z,32.20
2019-02-20T07:53:36.987Z,32.70
2019-02-20T07:58:42.597Z,28.23
2019-02-20T08:03:47.861Z,27.43
2019-02-20T08:08:53.405Z,30.67
2019-02-20T08:14:03.722Z,32.67
2019-02-20T08:19:08.850Z,31.20
2019-02-20T08:24:18.983Z,32.10
2019-02-20T08:29:24.098Z,27.00
2019-02-20T08:34:29.289Z,27.63
2019-02-20T08:39:34.531Z,25.30
2019-02-20T08:44:42.556Z,29.15
2019-02-20T08:49:47.645Z,32.10
2019-02-20T08:54:56.347Z,32.20
2019-02-20T09:00:05.703Z,31.48
2019-02-20T09:05:12.971Z,30.45
2019-02-20T09:10:19.202Z,29.67
2019-02-20T09:15:24.501Z,25.90
2019-02-20T09:20:30.191Z,28.77
2019-02-20T09:25:41.641Z,25.60
2019-02-20T09:30:42.650Z,25.72
2019-02-20T09:35:48.055Z,25.77
2019-02-20T09:40:55.044Z,23.53
2019-02-20T09:46:00.590Z,23.83
2019-02-20T09:51:05.818Z,23.03
2019-02-20T09:56:11.107Z,21.57
2019-02-20T10:01:16.237Z,22.67
2019-02-20T10:36:53.981Z,25.50
2019-02-20T10:41:59.303Z,23.73
2019-02-20T10:47:04.423Z,23.17
2019-02-20T10:52:09.905Z,23.80
2019-02-20T10:57:15.168Z,25.57
2019-02-20T11:02:20.565Z,25.10
2019-02-20T11:07:25.857Z,23.77
2019-02-20T11:12:39.061Z,23.33
2019-02-20T11:17:44.917Z,21.17
2019-02-20T11:22:51.194Z,25.52
2019-02-20T11:28:07.430Z,26.07
2019-02-20T11:33:14.857Z,31.53
2019-02-20T11:38:20.337Z,22.87
2019-02-20T11:43:34.629Z,22.62
2019-02-20T11:48:42.656Z,22.90
2019-02-20T11:53:49.269Z,21.95
2019-02-20T11:59:01.369Z,20.85
2019-02-20T12:04:12.246Z,21.23
2019-02-20T12:09:19.042Z,20.80
2019-02-20T12:14:24.834Z,20.05
2019-02-20T12:19:42.781Z,20.15
2019-02-20T12:24:49.526Z,20.08
2019-02-20T12:29:57.257Z,21.87
2019-02-20T12:35:05.154Z,19.67
2019-02-20T12:40:11.927Z,18.85
2019-02-20T12:45:24.411Z,17.73
2019-02-20T12:50:30.450Z,19.27
2019-02-20T12:55:40.681Z,18.35
2019-02-20T13:00:57.353Z,17.15
2019-02-20T13:06:03.451Z,17.20
2019-02-20T13:11:09.751Z,16.77
2019-02-20T13:16:15.272Z,19.60
2019-02-20T13:21:23.774Z,16.67
2019-02-20T13:26:29.464Z,21.60
2019-02-20T13:31:34.724Z,21.68
2019-02-20T13:36:40.189Z,18.80
2019-02-20T13:41:45.347Z,17.27
2019-02-20T13:46:50.759Z,18.10
2019-02-20T13:51:57.137Z,15.35
2019-02-20T13:57:02.534Z,17.40
2019-02-20T14:02:08.056Z,18.37
2019-02-20T14:07:16.309Z,20.90
2019-02-20T14:12:22.452Z,20.50
2019-02-20T14:17:28.341Z,20.62
2019-02-20T14:22:34.327Z,20.50
2019-02-20T14:28:13.254Z,20.10
2019-02-20T14:33:22.603Z,20.13
2019-02-20T14:38:27.865Z,19.67
2019-02-20T14:43:33.245Z,20.40
2019-02-20T14:48:38.624Z,20.72
2019-02-20T14:53:44.407Z,21.03
2019-02-20T14:58:52.889Z,21.67
2019-02-20T15:03:58.725Z,23.70
2019-02-20T15:09:06.034Z,21.37
2019-02-20T15:14:13.371Z,22.27
2019-02-20T15:19:19.753Z,27.80
2019-02-20T15:24:25.149Z,23.90
2019-02-20T15:29:32.521Z,28.53
2019-02-20T15:34:39.651Z,24.00
2019-02-20T15:39:45.391Z,20.23
2019-02-20T15:44:50.974Z,20.87
2019-02-20T15:49:56.411Z,21.00
2019-02-20T15:55:04.146Z,20.83
2019-02-20T16:00:11.498Z,18.93
2019-02-20T16:05:16.769Z,20.73
2019-02-20T16:10:22.444Z,19.60
2019-02-20T16:15:27.757Z,21.30
2019-02-20T16:20:35.171Z,18.40
2019-02-20T16:25:45.874Z,20.93
2019-02-20T16:30:51.381Z,20.07
2019-02-20T16:35:57.571Z,20.63
2019-02-20T16:41:04.770Z,21.10
2019-02-20T16:46:10.015Z,20.53
2019-02-20T16:51:15.337Z,23.07
2019-02-20T16:56:20.873Z,22.50
2019-02-20T17:01:26.464Z,23.23
2019-02-20T17:06:31.884Z,20.63
2019-02-20T17:11:37.257Z,22.17
2019-02-20T17:16:42.403Z,20.97
2019-02-20T17:21:47.559Z,23.77
2019-02-20T17:26:53.553Z,23.13
2019-02-20T17:31:59.070Z,25.43
2019-02-20T17:37:04.218Z,25.70
2019-02-20T17:42:09.350Z,30.77
2019-02-20T17:47:14.939Z,24.87
2019-02-20T17:52:21.473Z,19.03
2019-02-20T17:57:26.719Z,20.27
2019-02-20T18:02:32.193Z,23.10
2019-02-20T18:07:38.121Z,20.37
2019-02-20T18:12:43.393Z,23.83
2019-02-20T18:17:48.516Z,23.37
2019-02-20T18:22:54.411Z,22.77
2019-02-20T18:27:59.915Z,21.43
2019-02-20T18:33:05.432Z,21.83
2019-02-20T18:38:10.635Z,21.90
2019-02-20T18:43:16.055Z,25.30
2019-02-20T18:48:25.843Z,23.37
2019-02-20T18:53:32.084Z,22.60
2019-02-20T18:58:38.476Z,22.60
2019-02-20T19:03:44.217Z,22.63
2019-02-20T19:08:56.335Z,23.50
2019-02-20T19:14:25.974Z,21.97
2019-02-20T19:20:03.224Z,24.80
2019-02-20T19:25:37.329Z,25.03
2019-02-20T19:31:26.863Z,25.27
2019-02-20T19:37:19.164Z,25.67
2019-02-20T19:42:49.439Z,23.43
2019-02-20T19:48:21.965Z,24.20
2019-02-20T19:53:48.760Z,25.87
2019-02-20T19:59:21.714Z,24.33
2019-02-20T20:04:56.702Z,24.70
2019-02-20T20:10:46.472Z,25.93
2019-02-20T20:16:24.607Z,26.53
2019-02-20T20:22:07.854Z,28.03
2019-02-20T20:27:46.949Z,27.93
2019-02-20T20:33:45.589Z,28.70
2019-02-20T20:39:15.932Z,26.93
2019-02-20T20:44:48.120Z,26.37
2019-02-20T20:50:46.435Z,33.33
2019-02-20T20:56:23.511Z,29.60
2019-02-20T21:01:39.447Z,28.90
2019-02-20T21:07:35.337Z,26.97
2019-02-20T21:13:23.451Z,30.23
2019-02-20T21:19:21.468Z,26.47
2019-02-20T21:25:01.401Z,23.47
2019-02-20T21:30:42.815Z,25.23
2019-02-20T21:36:14.594Z,28.07
2019-02-20T21:42:00.326Z,28.67
2019-02-20T21:47:40.800Z,29.87
2019-02-20T21:52:52.362Z,32.30
2019-02-20T21:58:23.075Z,32.40
2019-02-20T22:03:53.725Z,26.60
2019-02-20T22:09:27.154Z,26.67
2019-02-20T22:14:57.704Z,24.97
2019-02-20T22:20:47.198Z,28.13
2019-02-20T22:26:08.975Z,28.83
2019-02-20T22:32:00.565Z,28.37
2019-02-20T22:37:34.516Z,34.07
2019-02-20T22:43:32.758Z,34.50
2019-02-20T22:49:18.016Z,34.40
2019-02-20T22:55:06.981Z,32.67
2019-02-20T23:01:08.034Z,30.93
2019-02-20T23:07:10.740Z,31.70
2019-02-20T23:12:54.628Z,35.33
2019-02-20T23:17:59.805Z,29.80
2019-02-20T23:23:23.965Z,30.40
2019-02-20T23:28:33.711Z,28.63
2019-02-20T23:33:39.195Z,25.17
2019-02-20T23:38:44.514Z,27.80
2019-02-20T23:43:52.149Z,28.03
2019-02-20T23:49:01.510Z,27.60
2019-02-20T23:54:10.150Z,26.53
2019-02-20T23:59:15.347Z,27.20
